sensor_id;sensor_type;location;lat;lon;timestamp;P1;durP1;ratioP1;P2;durP2;ratioP2
20458;SDS011;10388;52.314;7.938;2023-01-31T00:00:51;12.23;;;3.43;;
20458;SDS011;10388;52.314;7.938;2023-01-31T00:03:21;14.77;;;4.67;;
20458;SDS011;10388;52.314;7.938;2023-01-31T00:05:52;9.80;;;2.93;;
20458;SDS011;10388;52.314;7.938;2023-01-31T00:08:22;14.43;;;3.10;;
20458;SDS011;10388;52.314;7.938;2023-01-31T00:10:53;10.83;;;2.70;;
20458;SDS011;10388;52.314;7.938;2023-01-31T00:13:27;14.13;;;3.10;;
20458;SDS011;10388;52.314;7.938;2023-01-31T00:15:58;15.77;;;4.20;;
20458;SDS011;10388;52.314;7.938;2023-01-31T00:18:28;17.30;;;5.13;;
20458;SDS011;10388;52.314;7.938;2023-01-31T00:23:43;8.90;;;3.30;;
20458;SDS011;10388;52.314;7.938;2023-01-31T00:28:49;10.50;;;3.07;;
20458;SDS011;10388;52.314;7.938;2023-01-31T00:31:22;12.20;;;2.80;;
20458;SDS011;10388;52.314;7.938;2023-01-31T00:33:54;11.63;;;3.37;;
20458;SDS011;10388;52.314;7.938;2023-01-31T00:36:34;12.17;;;3.47;;
20458;SDS011;10388;52.314;7.938;2023-01-31T00:39:05;11.67;;;3.23;;
20458;SDS011;10388;52.314;7.938;2023-01-31T00:41:37;12.57;;;3.10;;
20458;SDS011;10388;52.314;7.938;2023-01-31T00:44:07;10.33;;;2.60;;
20458;SDS011;10388;52.314;7.938;2023-01-31T00:46:38;9.97;;;2.93;;
20458;SDS011;10388;52.314;7.938;2023-01-31T00:49:08;10.67;;;2.97;;
20458;SDS011;10388;52.314;7.938;2023-01-31T00:51:39;11.73;;;3.20;;
20458;SDS011;10388;52.314;7.938;2023-01-31T00:54:10;10.00;;;3.30;;
20458;SDS011;10388;52.314;7.938;2023-01-31T00:56:40;14.43;;;2.77;;
20458;SDS011;10388;52.314;7.938;2023-01-31T00:59:11;14.00;;;3.67;;
20458;SDS011;10388;52.314;7.938;2023-01-31T02:01:43;15.37;;;3.23;;
20458;SDS011;10388;52.314;7.938;2023-01-31T02:04:58;11.90;;;3.00;;
20458;SDS011;10388;52.314;7.938;2023-01-31T02:07:32;9.33;;;2.60;;
20458;SDS011;10388;52.314;7.938;2023-01-31T02:10:41;15.80;;;3.10;;
20458;SDS011;10388;52.314;7.938;2023-01-31T02:13:55;7.13;;;2.60;;
20458;SDS011;10388;52.314;7.938;2023-01-31T02:16:46;7.40;;;2.63;;
20458;SDS011;10388;52.314;7.938;2023-01-31T02:25:29;10.67;;;2.77;;
20458;SDS011;10388;52.314;7.938;2023-01-31T02:31:28;11.93;;;2.90;;
20458;SDS011;10388;52.314;7.938;2023-01-31T02:40:56;13.00;;;3.97;;
20458;SDS011;10388;52.314;7.938;2023-01-31T02:58:30;22.13;;;5.77;;
20458;SDS011;10388;52.314;7.938;2023-01-31T03:01:21;10.93;;;3.50;;
20458;SDS011;10388;52.314;7.938;2023-01-31T04:32:35;11.57;;;3.60;;
20458;SDS011;10388;52.314;7.938;2023-01-31T04:35:06;8.57;;;3.20;;
20458;SDS011;10388;52.314;7.938;2023-01-31T04:37:37;10.43;;;3.20;;
20458;SDS011;10388;52.314;7.938;2023-01-31T04:40:08;12.07;;;3.23;;
20458;SDS011;10388;52.314;7.938;2023-01-31T04:42:39;9.30;;;3.00;;
20458;SDS011;10388;52.314;7.938;2023-01-31T04:45:09;12.50;;;2.70;;
20458;SDS011;10388;52.314;7.938;2023-01-31T04:47:40;11.83;;;3.20;;
20458;SDS011;10388;52.314;7.938;2023-01-31T04:50:11;15.47;;;2.90;;
20458;SDS011;10388;52.314;7.938;2023-01-31T04:52:41;6.60;;;2.47;;
20458;SDS011;10388;52.314;7.938;2023-01-31T04:55:12;12.17;;;2.93;;
20458;SDS011;10388;52.314;7.938;2023-01-31T04:57:43;11.20;;;2.83;;
20458;SDS011;10388;52.314;7.938;2023-01-31T05:00:13;10.60;;;3.53;;
20458;SDS011;10388;52.314;7.938;2023-01-31T05:02:44;13.00;;;3.10;;
20458;SDS011;10388;52.314;7.938;2023-01-31T05:05:15;9.70;;;2.77;;
20458;SDS011;10388;52.314;7.938;2023-01-31T05:07:45;12.50;;;3.53;;
20458;SDS011;10388;52.314;7.938;2023-01-31T05:10:16;10.53;;;3.27;;
20458;SDS011;10388;52.314;7.938;2023-01-31T05:12:47;8.13;;;2.80;;
20458;SDS011;10388;52.314;7.938;2023-01-31T05:15:17;7.10;;;2.80;;
20458;SDS011;10388;52.314;7.938;2023-01-31T05:17:53;9.47;;;3.07;;
20458;SDS011;10388;52.314;7.938;2023-01-31T05:20:32;19.40;;;3.57;;
20458;SDS011;10388;52.314;7.938;2023-01-31T05:23:09;11.13;;;2.70;;
20458;SDS011;10388;52.314;7.938;2023-01-31T05:25:40;11.10;;;3.37;;
20458;SDS011;10388;52.314;7.938;2023-01-31T05:28:10;13.50;;;3.73;;
20458;SDS011;10388;52.314;7.938;2023-01-31T05:30:41;9.57;;;2.87;;
20458;SDS011;10388;52.314;7.938;2023-01-31T05:33:12;11.33;;;3.77;;
20458;SDS011;10388;52.314;7.938;2023-01-31T05:35:43;10.00;;;3.63;;
20458;SDS011;10388;52.314;7.938;2023-01-31T05:38:13;9.13;;;3.97;;
20458;SDS011;10388;52.314;7.938;2023-01-31T05:40:44;8.83;;;3.47;;
20458;SDS011;10388;52.314;7.938;2023-01-31T05:43:15;13.67;;;3.63;;
20458;SDS011;10388;52.314;7.938;2023-01-31T05:45:49;11.50;;;3.60;;
20458;SDS011;10388;52.314;7.938;2023-01-31T05:48:19;11.57;;;3.70;;
20458;SDS011;10388;52.314;7.938;2023-01-31T05:50:50;17.93;;;3.83;;
20458;SDS011;10388;52.314;7.938;2023-01-31T05:53:21;8.77;;;3.10;;
20458;SDS011;10388;52.314;7.938;2023-01-31T05:55:51;9.07;;;3.63;;
20458;SDS011;10388;52.314;7.938;2023-01-31T05:58:23;7.00;;;4.03;;
20458;SDS011;10388;52.314;7.938;2023-01-31T06:00:54;8.83;;;3.67;;
20458;SDS011;10388;52.314;7.938;2023-01-31T06:03:25;13.43;;;3.43;;
20458;SDS011;10388;52.314;7.938;2023-01-31T06:05:56;14.20;;;5.03;;
20458;SDS011;10388;52.314;7.938;2023-01-31T06:08:26;11.87;;;3.90;;
20458;SDS011;10388;52.314;7.938;2023-01-31T06:11:00;10.13;;;4.10;;
20458;SDS011;10388;52.314;7.938;2023-01-31T06:13:31;14.93;;;4.63;;
20458;SDS011;10388;52.314;7.938;2023-01-31T06:16:02;17.30;;;4.70;;
20458;SDS011;10388;52.314;7.938;2023-01-31T06:18:34;13.87;;;4.47;;
20458;SDS011;10388;52.314;7.938;2023-01-31T06:21:05;15.87;;;5.33;;
20458;SDS011;10388;52.314;7.938;2023-01-31T06:23:35;10.73;;;4.83;;
20458;SDS011;10388;52.314;7.938;2023-01-31T06:26:06;15.03;;;5.23;;
20458;SDS011;10388;52.314;7.938;2023-01-31T06:28:36;17.03;;;5.23;;
20458;SDS011;10388;52.314;7.938;2023-01-31T06:31:07;10.53;;;4.47;;
20458;SDS011;10388;52.314;7.938;2023-01-31T06:33:39;15.63;;;4.93;;
20458;SDS011;10388;52.314;7.938;2023-01-31T06:36:10;11.87;;;4.33;;
20458;SDS011;10388;52.314;7.938;2023-01-31T06:38:40;12.20;;;4.67;;
20458;SDS011;10388;52.314;7.938;2023-01-31T06:41:11;13.00;;;4.83;;
20458;SDS011;10388;52.314;7.938;2023-01-31T06:43:41;14.77;;;4.87;;
20458;SDS011;10388;52.314;7.938;2023-01-31T06:46:12;15.63;;;5.80;;
20458;SDS011;10388;52.314;7.938;2023-01-31T06:48:42;11.57;;;4.50;;
20458;SDS011;10388;52.314;7.938;2023-01-31T06:51:16;17.67;;;5.90;;
20458;SDS011;10388;52.314;7.938;2023-01-31T06:53:47;15.17;;;5.40;;
20458;SDS011;10388;52.314;7.938;2023-01-31T06:56:18;13.70;;;5.17;;
20458;SDS011;10388;52.314;7.938;2023-01-31T06:58:48;9.73;;;5.20;;
20458;SDS011;10388;52.314;7.938;2023-01-31T07:01:19;16.50;;;5.60;;
20458;SDS011;10388;52.314;7.938;2023-01-31T07:03:51;15.07;;;6.50;;
20458;SDS011;10388;52.314;7.938;2023-01-31T07:06:21;16.63;;;5.77;;
20458;SDS011;10388;52.314;7.938;2023-01-31T07:08:52;11.47;;;5.43;;
20458;SDS011;10388;52.314;7.938;2023-01-31T07:11:23;16.77;;;5.90;;
20458;SDS011;10388;52.314;7.938;2023-01-31T07:13:53;18.33;;;6.57;;
20458;SDS011;10388;52.314;7.938;2023-01-31T07:16:24;11.23;;;5.73;;
20458;SDS011;10388;52.314;7.938;2023-01-31T07:18:54;14.60;;;6.27;;
20458;SDS011;10388;52.314;7.938;2023-01-31T07:21:25;17.33;;;5.70;;
20458;SDS011;10388;52.314;7.938;2023-01-31T07:23:56;16.63;;;6.80;;
20458;SDS011;10388;52.314;7.938;2023-01-31T07:26:26;11.40;;;6.30;;
20458;SDS011;10388;52.314;7.938;2023-01-31T07:28:57;16.43;;;6.63;;
20458;SDS011;10388;52.314;7.938;2023-01-31T07:31:27;16.93;;;6.67;;
20458;SDS011;10388;52.314;7.938;2023-01-31T07:33:58;23.13;;;8.67;;
20458;SDS011;10388;52.314;7.938;2023-01-31T07:36:29;18.67;;;7.30;;
20458;SDS011;10388;52.314;7.938;2023-01-31T07:39:00;16.37;;;7.67;;
20458;SDS011;10388;52.314;7.938;2023-01-31T07:41:31;15.77;;;6.87;;
20458;SDS011;10388;52.314;7.938;2023-01-31T07:44:01;17.30;;;7.73;;
20458;SDS011;10388;52.314;7.938;2023-01-31T07:46:32;18.97;;;8.60;;
20458;SDS011;10388;52.314;7.938;2023-01-31T07:49:03;24.17;;;8.40;;
20458;SDS011;10388;52.314;7.938;2023-01-31T07:51:33;17.57;;;6.63;;
20458;SDS011;10388;52.314;7.938;2023-01-31T07:54:05;17.10;;;7.30;;
20458;SDS011;10388;52.314;7.938;2023-01-31T07:56:36;19.87;;;7.93;;
20458;SDS011;10388;52.314;7.938;2023-01-31T07:59:06;15.13;;;7.97;;
20458;SDS011;10388;52.314;7.938;2023-01-31T08:01:37;21.40;;;8.30;;
20458;SDS011;10388;52.314;7.938;2023-01-31T08:04:26;12.10;;;6.70;;
20458;SDS011;10388;52.314;7.938;2023-01-31T08:06:57;15.33;;;6.90;;
20458;SDS011;10388;52.314;7.938;2023-01-31T08:09:30;19.60;;;7.43;;
20458;SDS011;10388;52.314;7.938;2023-01-31T08:12:00;16.00;;;7.20;;
20458;SDS011;10388;52.314;7.938;2023-01-31T08:14:31;17.67;;;7.03;;
20458;SDS011;10388;52.314;7.938;2023-01-31T08:17:02;16.80;;;8.63;;
20458;SDS011;10388;52.314;7.938;2023-01-31T08:19:33;18.33;;;7.50;;
20458;SDS011;10388;52.314;7.938;2023-01-31T08:22:04;18.17;;;7.57;;
20458;SDS011;10388;52.314;7.938;2023-01-31T08:24:35;16.83;;;7.47;;
20458;SDS011;10388;52.314;7.938;2023-01-31T08:27:06;18.43;;;7.70;;
20458;SDS011;10388;52.314;7.938;2023-01-31T08:29:36;18.77;;;8.03;;
20458;SDS011;10388;52.314;7.938;2023-01-31T08:32:07;19.00;;;7.70;;
20458;SDS011;10388;52.314;7.938;2023-01-31T08:34:37;18.43;;;7.17;;
20458;SDS011;10388;52.314;7.938;2023-01-31T08:37:08;16.67;;;8.27;;
20458;SDS011;10388;52.314;7.938;2023-01-31T08:39:38;18.87;;;7.53;;
20458;SDS011;10388;52.314;7.938;2023-01-31T08:42:09;15.30;;;7.60;;
20458;SDS011;10388;52.314;7.938;2023-01-31T08:44:40;14.27;;;7.63;;
20458;SDS011;10388;52.314;7.938;2023-01-31T08:47:12;15.37;;;8.10;;
20458;SDS011;10388;52.314;7.938;2023-01-31T08:49:43;13.47;;;8.10;;
20458;SDS011;10388;52.314;7.938;2023-01-31T08:52:13;16.53;;;7.50;;
20458;SDS011;10388;52.314;7.938;2023-01-31T08:54:44;11.30;;;7.77;;
20458;SDS011;10388;52.314;7.938;2023-01-31T08:57:14;12.93;;;7.13;;
20458;SDS011;10388;52.314;7.938;2023-01-31T08:59:45;16.03;;;6.83;;
20458;SDS011;10388;52.314;7.938;2023-01-31T09:02:15;14.97;;;6.77;;
20458;SDS011;10388;52.314;7.938;2023-01-31T09:04:46;15.97;;;6.97;;
20458;SDS011;10388;52.314;7.938;2023-01-31T09:07:16;14.07;;;6.80;;
20458;SDS011;10388;52.314;7.938;2023-01-31T09:09:50;11.40;;;7.17;;
20458;SDS011;10388;52.314;7.938;2023-01-31T09:12:21;11.70;;;6.90;;
20458;SDS011;10388;52.314;7.938;2023-01-31T09:14:51;15.77;;;7.67;;
20458;SDS011;10388;52.314;7.938;2023-01-31T09:17:22;14.53;;;8.13;;
20458;SDS011;10388;52.314;7.938;2023-01-31T09:19:52;14.63;;;7.23;;
20458;SDS011;10388;52.314;7.938;2023-01-31T09:22:23;17.70;;;8.00;;
20458;SDS011;10388;52.314;7.938;2023-01-31T09:24:53;15.13;;;7.40;;
20458;SDS011;10388;52.314;7.938;2023-01-31T09:27:24;22.47;;;7.67;;
20458;SDS011;10388;52.314;7.938;2023-01-31T09:29:54;16.70;;;7.30;;
20458;SDS011;10388;52.314;7.938;2023-01-31T09:32:25;13.30;;;7.67;;
20458;SDS011;10388;52.314;7.938;2023-01-31T09:34:55;13.70;;;7.20;;
20458;SDS011;10388;52.314;7.938;2023-01-31T09:37:28;15.40;;;8.10;;
20458;SDS011;10388;52.314;7.938;2023-01-31T09:40:00;12.70;;;7.50;;
20458;SDS011;10388;52.314;7.938;2023-01-31T09:42:32;14.80;;;8.63;;
20458;SDS011;10388;52.314;7.938;2023-01-31T09:45:14;15.17;;;8.53;;
20458;SDS011;10388;52.314;7.938;2023-01-31T09:47:57;15.73;;;7.17;;
20458;SDS011;10388;52.314;7.938;2023-01-31T09:53:13;14.47;;;8.00;;
20458;SDS011;10388;52.314;7.938;2023-01-31T09:58:58;18.63;;;8.80;;
20458;SDS011;10388;52.314;7.938;2023-01-31T10:02:00;14.83;;;7.83;;
20458;SDS011;10388;52.314;7.938;2023-01-31T10:04:55;11.07;;;7.70;;
20458;SDS011;10388;52.314;7.938;2023-01-31T10:07:35;17.43;;;7.60;;
20458;SDS011;10388;52.314;7.938;2023-01-31T10:13:04;16.60;;;8.40;;
20458;SDS011;10388;52.314;7.938;2023-01-31T10:15:45;11.97;;;7.37;;
20458;SDS011;10388;52.314;7.938;2023-01-31T10:18:27;14.10;;;7.63;;
20458;SDS011;10388;52.314;7.938;2023-01-31T10:23:38;15.60;;;8.57;;
20458;SDS011;10388;52.314;7.938;2023-01-31T10:26:26;16.43;;;8.10;;
20458;SDS011;10388;52.314;7.938;2023-01-31T10:29:03;16.80;;;8.40;;
20458;SDS011;10388;52.314;7.938;2023-01-31T10:31:48;16.90;;;8.13;;
20458;SDS011;10388;52.314;7.938;2023-01-31T10:34:27;17.20;;;9.17;;
20458;SDS011;10388;52.314;7.938;2023-01-31T10:37:13;15.70;;;7.83;;
20458;SDS011;10388;52.314;7.938;2023-01-31T10:42:50;16.03;;;7.70;;
20458;SDS011;10388;52.314;7.938;2023-01-31T10:45:26;15.13;;;8.33;;
20458;SDS011;10388;52.314;7.938;2023-01-31T10:48:15;16.90;;;8.00;;
20458;SDS011;10388;52.314;7.938;2023-01-31T10:56:42;17.20;;;8.53;;
20458;SDS011;10388;52.314;7.938;2023-01-31T10:59:25;13.30;;;7.80;;
20458;SDS011;10388;52.314;7.938;2023-01-31T11:02:13;12.87;;;7.83;;
20458;SDS011;10388;52.314;7.938;2023-01-31T11:04:49;14.90;;;8.73;;
20458;SDS011;10388;52.314;7.938;2023-01-31T11:07:21;17.27;;;8.40;;
20458;SDS011;10388;52.314;7.938;2023-01-31T11:09:53;13.53;;;8.60;;
20458;SDS011;10388;52.314;7.938;2023-01-31T11:12:51;17.40;;;9.30;;
20458;SDS011;10388;52.314;7.938;2023-01-31T11:15:25;13.40;;;8.60;;
20458;SDS011;10388;52.314;7.938;2023-01-31T11:17:58;15.23;;;8.47;;
20458;SDS011;10388;52.314;7.938;2023-01-31T11:20:31;18.97;;;8.60;;
20458;SDS011;10388;52.314;7.938;2023-01-31T11:23:05;14.10;;;8.30;;
20458;SDS011;10388;52.314;7.938;2023-01-31T11:25:36;13.77;;;8.30;;
20458;SDS011;10388;52.314;7.938;2023-01-31T11:28:32;13.87;;;8.57;;
20458;SDS011;10388;52.314;7.938;2023-01-31T11:31:23;11.30;;;8.33;;
20458;SDS011;10388;52.314;7.938;2023-01-31T11:34:04;17.83;;;8.97;;
20458;SDS011;10388;52.314;7.938;2023-01-31T11:36:48;15.40;;;8.10;;
20458;SDS011;10388;52.314;7.938;2023-01-31T11:39:29;16.60;;;8.30;;
20458;SDS011;10388;52.314;7.938;2023-01-31T11:44:57;17.70;;;7.67;;
20458;SDS011;10388;52.314;7.938;2023-01-31T11:47:48;19.57;;;8.70;;
20458;SDS011;10388;52.314;7.938;2023-01-31T11:50:22;23.83;;;8.87;;
20458;SDS011;10388;52.314;7.938;2023-01-31T11:53:16;14.90;;;8.03;;
20458;SDS011;10388;52.314;7.938;2023-01-31T11:55:50;17.67;;;11.07;;
20458;SDS011;10388;52.314;7.938;2023-01-31T11:58:25;24.03;;;8.53;;
20458;SDS011;10388;52.314;7.938;2023-01-31T12:01:07;15.73;;;9.23;;
20458;SDS011;10388;52.314;7.938;2023-01-31T12:07:00;17.50;;;8.60;;
20458;SDS011;10388;52.314;7.938;2023-01-31T12:09:42;17.60;;;10.00;;
20458;SDS011;10388;52.314;7.938;2023-01-31T12:12:20;16.13;;;8.30;;
20458;SDS011;10388;52.314;7.938;2023-01-31T12:15:12;13.57;;;7.80;;
20458;SDS011;10388;52.314;7.938;2023-01-31T12:17:44;18.23;;;8.47;;
20458;SDS011;10388;52.314;7.938;2023-01-31T12:26:21;11.97;;;7.70;;
20458;SDS011;10388;52.314;7.938;2023-01-31T12:29:05;12.07;;;8.27;;
20458;SDS011;10388;52.314;7.938;2023-01-31T12:31:48;16.33;;;8.83;;
20458;SDS011;10388;52.314;7.938;2023-01-31T12:37:37;17.90;;;9.27;;
20458;SDS011;10388;52.314;7.938;2023-01-31T12:40:41;16.43;;;8.93;;
20458;SDS011;10388;52.314;7.938;2023-01-31T12:46:39;11.23;;;7.90;;
20458;SDS011;10388;52.314;7.938;2023-01-31T12:48:56;14.43;;;8.30;;
20458;SDS011;10388;52.314;7.938;2023-01-31T12:54:57;11.43;;;8.53;;
20458;SDS011;10388;52.314;7.938;2023-01-31T12:57:58;16.57;;;9.20;;
20458;SDS011;10388;52.314;7.938;2023-01-31T13:03:40;13.13;;;9.13;;
20458;SDS011;10388;52.314;7.938;2023-01-31T13:06:33;11.07;;;8.20;;
20458;SDS011;10388;52.314;7.938;2023-01-31T13:09:17;10.03;;;8.03;;
20458;SDS011;10388;52.314;7.938;2023-01-31T13:14:39;10.60;;;7.93;;
20458;SDS011;10388;52.314;7.938;2023-01-31T13:17:18;10.20;;;6.57;;
20458;SDS011;10388;52.314;7.938;2023-01-31T13:19:57;8.63;;;6.17;;
20458;SDS011;10388;52.314;7.938;2023-01-31T13:22:32;9.10;;;7.03;;
20458;SDS011;10388;52.314;7.938;2023-01-31T13:25:17;8.93;;;6.80;;
20458;SDS011;10388;52.314;7.938;2023-01-31T13:28:12;10.63;;;6.97;;
20458;SDS011;10388;52.314;7.938;2023-01-31T13:30:49;12.47;;;7.57;;
20458;SDS011;10388;52.314;7.938;2023-01-31T13:36:17;12.90;;;7.70;;
20458;SDS011;10388;52.314;7.938;2023-01-31T13:39:04;13.83;;;7.73;;
20458;SDS011;10388;52.314;7.938;2023-01-31T13:41:43;11.80;;;7.80;;
20458;SDS011;10388;52.314;7.938;2023-01-31T13:44:14;13.10;;;8.67;;
20458;SDS011;10388;52.314;7.938;2023-01-31T13:46:54;10.50;;;8.30;;
20458;SDS011;10388;52.314;7.938;2023-01-31T13:49:36;13.20;;;8.80;;
20458;SDS011;10388;52.314;7.938;2023-01-31T13:52:17;9.97;;;7.87;;
20458;SDS011;10388;52.314;7.938;2023-01-31T13:55:13;9.57;;;8.57;;
20458;SDS011;10388;52.314;7.938;2023-01-31T13:57:51;14.30;;;7.90;;
20458;SDS011;10388;52.314;7.938;2023-01-31T14:13:48;11.57;;;7.77;;
20458;SDS011;10388;52.314;7.938;2023-01-31T14:16:33;12.23;;;8.47;;
20458;SDS011;10388;52.314;7.938;2023-01-31T14:27:16;12.77;;;7.80;;
20458;SDS011;10388;52.314;7.938;2023-01-31T14:29:54;11.37;;;8.23;;
20458;SDS011;10388;52.314;7.938;2023-01-31T14:40:26;11.93;;;7.47;;
20458;SDS011;10388;52.314;7.938;2023-01-31T14:43:10;11.93;;;7.93;;
20458;SDS011;10388;52.314;7.938;2023-01-31T14:46:00;11.83;;;7.40;;
20458;SDS011;10388;52.314;7.938;2023-01-31T14:57:37;10.13;;;6.50;;
20458;SDS011;10388;52.314;7.938;2023-01-31T15:02:49;10.97;;;6.77;;
20458;SDS011;10388;52.314;7.938;2023-01-31T15:08:01;8.90;;;5.60;;
20458;SDS011;10388;52.314;7.938;2023-01-31T15:13:35;10.20;;;6.80;;
20458;SDS011;10388;52.314;7.938;2023-01-31T15:16:17;7.50;;;5.00;;
20458;SDS011;10388;52.314;7.938;2023-01-31T15:27:06;6.87;;;4.13;;
20458;SDS011;10388;52.314;7.938;2023-01-31T15:29:51;6.63;;;4.03;;
20458;SDS011;10388;52.314;7.938;2023-01-31T15:35:14;7.67;;;4.40;;
20458;SDS011;10388;52.314;7.938;2023-01-31T15:38:02;6.93;;;3.73;;
20458;SDS011;10388;52.314;7.938;2023-01-31T15:40:41;6.33;;;4.27;;
20458;SDS011;10388;52.314;7.938;2023-01-31T15:43:15;6.53;;;4.57;;
20458;SDS011;10388;52.314;7.938;2023-01-31T15:45:53;6.27;;;4.40;;
20458;SDS011;10388;52.314;7.938;2023-01-31T15:48:24;8.83;;;5.20;;
20458;SDS011;10388;52.314;7.938;2023-01-31T15:50:55;9.10;;;5.57;;
20458;SDS011;10388;52.314;7.938;2023-01-31T15:53:27;8.87;;;4.60;;
20458;SDS011;10388;52.314;7.938;2023-01-31T15:55:59;6.33;;;4.50;;
20458;SDS011;10388;52.314;7.938;2023-01-31T15:58:34;6.33;;;4.40;;
20458;SDS011;10388;52.314;7.938;2023-01-31T16:01:06;8.40;;;4.67;;
20458;SDS011;10388;52.314;7.938;2023-01-31T16:04:04;6.80;;;3.70;;
20458;SDS011;10388;52.314;7.938;2023-01-31T16:06:36;9.97;;;4.70;;
20458;SDS011;10388;52.314;7.938;2023-01-31T16:09:20;9.07;;;3.57;;
20458;SDS011;10388;52.314;7.938;2023-01-31T16:12:01;9.30;;;5.50;;
20458;SDS011;10388;52.314;7.938;2023-01-31T16:14:33;6.87;;;4.03;;
20458;SDS011;10388;52.314;7.938;2023-01-31T16:17:04;7.77;;;3.83;;
20458;SDS011;10388;52.314;7.938;2023-01-31T16:19:37;12.30;;;4.23;;
20458;SDS011;10388;52.314;7.938;2023-01-31T16:24:59;6.43;;;3.80;;
20458;SDS011;10388;52.314;7.938;2023-01-31T16:27:35;8.63;;;4.10;;
20458;SDS011;10388;52.314;7.938;2023-01-31T16:30:12;8.77;;;3.80;;
20458;SDS011;10388;52.314;7.938;2023-01-31T16:32:44;6.47;;;3.33;;
20458;SDS011;10388;52.314;7.938;2023-01-31T16:35:24;8.57;;;3.60;;
20458;SDS011;10388;52.314;7.938;2023-01-31T16:40:33;6.93;;;3.77;;
20458;SDS011;10388;52.314;7.938;2023-01-31T16:43:21;8.53;;;4.00;;
20458;SDS011;10388;52.314;7.938;2023-01-31T16:45:54;10.27;;;4.00;;
20458;SDS011;10388;52.314;7.938;2023-01-31T16:48:36;10.63;;;3.87;;
20458;SDS011;10388;52.314;7.938;2023-01-31T16:51:42;9.77;;;4.03;;
20458;SDS011;10388;52.314;7.938;2023-01-31T16:54:28;8.37;;;3.17;;
20458;SDS011;10388;52.314;7.938;2023-01-31T17:04:54;8.70;;;2.90;;
20458;SDS011;10388;52.314;7.938;2023-01-31T17:07:44;4.90;;;2.10;;
20458;SDS011;10388;52.314;7.938;2023-01-31T17:10:21;7.10;;;3.00;;
20458;SDS011;10388;52.314;7.938;2023-01-31T17:15:56;9.53;;;2.67;;
20458;SDS011;10388;52.314;7.938;2023-01-31T17:18:27;9.80;;;3.23;;
20458;SDS011;10388;52.314;7.938;2023-01-31T17:20:57;6.90;;;2.93;;
20458;SDS011;10388;52.314;7.938;2023-01-31T17:23:28;8.23;;;2.80;;
20458;SDS011;10388;52.314;7.938;2023-01-31T17:25:58;6.73;;;2.50;;
20458;SDS011;10388;52.314;7.938;2023-01-31T17:28:29;6.67;;;2.90;;
20458;SDS011;10388;52.314;7.938;2023-01-31T17:31:00;14.27;;;3.67;;
20458;SDS011;10388;52.314;7.938;2023-01-31T17:33:30;11.07;;;2.90;;
20458;SDS011;10388;52.314;7.938;2023-01-31T17:36:01;6.80;;;2.83;;
20458;SDS011;10388;52.314;7.938;2023-01-31T17:38:31;9.00;;;3.10;;
20458;SDS011;10388;52.314;7.938;2023-01-31T17:41:02;9.03;;;2.70;;
20458;SDS011;10388;52.314;7.938;2023-01-31T17:43:33;10.63;;;2.83;;
20458;SDS011;10388;52.314;7.938;2023-01-31T17:46:03;10.90;;;2.70;;
20458;SDS011;10388;52.314;7.938;2023-01-31T17:48:34;8.27;;;2.50;;
20458;SDS011;10388;52.314;7.938;2023-01-31T17:51:04;10.10;;;2.67;;
20458;SDS011;10388;52.314;7.938;2023-01-31T17:53:35;13.27;;;4.70;;
20458;SDS011;10388;52.314;7.938;2023-01-31T17:56:06;11.77;;;4.00;;
20458;SDS011;10388;52.314;7.938;2023-01-31T17:58:36;12.77;;;3.00;;
20458;SDS011;10388;52.314;7.938;2023-01-31T18:01:07;7.60;;;3.60;;
20458;SDS011;10388;52.314;7.938;2023-01-31T18:03:39;7.67;;;3.03;;
20458;SDS011;10388;52.314;7.938;2023-01-31T18:06:10;13.70;;;4.47;;
20458;SDS011;10388;52.314;7.938;2023-01-31T18:08:41;10.57;;;3.20;;
20458;SDS011;10388;52.314;7.938;2023-01-31T18:11:14;8.93;;;3.17;;
20458;SDS011;10388;52.314;7.938;2023-01-31T18:13:45;9.87;;;2.90;;
20458;SDS011;10388;52.314;7.938;2023-01-31T18:16:17;13.43;;;3.73;;
20458;SDS011;10388;52.314;7.938;2023-01-31T18:18:51;13.90;;;4.37;;
20458;SDS011;10388;52.314;7.938;2023-01-31T18:21:22;13.37;;;3.53;;
20458;SDS011;10388;52.314;7.938;2023-01-31T18:23:53;10.83;;;3.43;;
20458;SDS011;10388;52.314;7.938;2023-01-31T18:26:26;12.80;;;3.53;;
20458;SDS011;10388;52.314;7.938;2023-01-31T18:28:57;13.07;;;3.40;;
20458;SDS011;10388;52.314;7.938;2023-01-31T18:31:28;10.23;;;4.03;;
20458;SDS011;10388;52.314;7.938;2023-01-31T18:33:58;9.47;;;3.20;;
20458;SDS011;10388;52.314;7.938;2023-01-31T18:36:29;11.67;;;3.83;;
20458;SDS011;10388;52.314;7.938;2023-01-31T18:38:59;14.40;;;3.00;;
20458;SDS011;10388;52.314;7.938;2023-01-31T18:41:30;12.27;;;3.33;;
20458;SDS011;10388;52.314;7.938;2023-01-31T18:44:01;15.97;;;3.40;;
20458;SDS011;10388;52.314;7.938;2023-01-31T18:46:31;12.60;;;3.83;;
20458;SDS011;10388;52.314;7.938;2023-01-31T18:49:02;12.67;;;3.03;;
20458;SDS011;10388;52.314;7.938;2023-01-31T18:51:32;15.20;;;3.20;;
20458;SDS011;10388;52.314;7.938;2023-01-31T18:54:03;6.63;;;2.97;;
20458;SDS011;10388;52.314;7.938;2023-01-31T18:56:37;9.40;;;3.60;;
20458;SDS011;10388;52.314;7.938;2023-01-31T18:59:08;9.77;;;3.23;;
20458;SDS011;10388;52.314;7.938;2023-01-31T19:01:38;9.90;;;3.03;;
20458;SDS011;10388;52.314;7.938;2023-01-31T19:04:09;13.97;;;3.23;;
20458;SDS011;10388;52.314;7.938;2023-01-31T19:06:39;13.10;;;3.00;;
20458;SDS011;10388;52.314;7.938;2023-01-31T19:09:10;7.63;;;2.80;;
20458;SDS011;10388;52.314;7.938;2023-01-31T19:11:42;9.17;;;3.17;;
20458;SDS011;10388;52.314;7.938;2023-01-31T19:14:14;11.30;;;3.60;;
20458;SDS011;10388;52.314;7.938;2023-01-31T19:16:44;8.67;;;3.10;;
20458;SDS011;10388;52.314;7.938;2023-01-31T19:19:15;15.93;;;3.40;;
20458;SDS011;10388;52.314;7.938;2023-01-31T19:21:46;10.50;;;3.20;;
20458;SDS011;10388;52.314;7.938;2023-01-31T19:24:16;10.87;;;4.30;;
20458;SDS011;10388;52.314;7.938;2023-01-31T19:26:49;9.57;;;2.90;;
20458;SDS011;10388;52.314;7.938;2023-01-31T19:29:20;8.97;;;3.10;;
20458;SDS011;10388;52.314;7.938;2023-01-31T19:31:52;11.07;;;3.57;;
20458;SDS011;10388;52.314;7.938;2023-01-31T19:34:22;10.17;;;2.57;;
20458;SDS011;10388;52.314;7.938;2023-01-31T19:36:53;10.87;;;3.00;;
20458;SDS011;10388;52.314;7.938;2023-01-31T19:39:23;7.20;;;2.27;;
20458;SDS011;10388;52.314;7.938;2023-01-31T19:41:54;9.83;;;3.53;;
20458;SDS011;10388;52.314;7.938;2023-01-31T19:44:25;7.67;;;3.00;;
20458;SDS011;10388;52.314;7.938;2023-01-31T19:46:55;7.77;;;3.13;;
20458;SDS011;10388;52.314;7.938;2023-01-31T19:49:26;14.57;;;3.40;;
20458;SDS011;10388;52.314;7.938;2023-01-31T19:51:57;14.20;;;3.07;;
20458;SDS011;10388;52.314;7.938;2023-01-31T19:54:27;12.93;;;3.70;;
20458;SDS011;10388;52.314;7.938;2023-01-31T19:56:58;7.77;;;3.13;;
20458;SDS011;10388;52.314;7.938;2023-01-31T19:59:28;11.83;;;3.50;;
20458;SDS011;10388;52.314;7.938;2023-01-31T20:01:59;10.70;;;2.97;;
20458;SDS011;10388;52.314;7.938;2023-01-31T20:04:29;10.90;;;2.93;;
20458;SDS011;10388;52.314;7.938;2023-01-31T20:07:01;11.50;;;3.57;;
20458;SDS011;10388;52.314;7.938;2023-01-31T20:09:32;12.17;;;2.73;;
20458;SDS011;10388;52.314;7.938;2023-01-31T20:12:02;15.77;;;4.87;;
20458;SDS011;10388;52.314;7.938;2023-01-31T20:14:33;10.27;;;3.00;;
20458;SDS011;10388;52.314;7.938;2023-01-31T20:17:04;10.83;;;3.10;;
20458;SDS011;10388;52.314;7.938;2023-01-31T20:19:35;11.87;;;3.37;;
20458;SDS011;10388;52.314;7.938;2023-01-31T20:22:05;14.93;;;3.50;;
20458;SDS011;10388;52.314;7.938;2023-01-31T20:24:36;10.13;;;3.20;;
20458;SDS011;10388;52.314;7.938;2023-01-31T20:27:06;11.03;;;3.13;;
20458;SDS011;10388;52.314;7.938;2023-01-31T20:29:37;11.90;;;3.97;;
20458;SDS011;10388;52.314;7.938;2023-01-31T20:32:07;12.60;;;3.33;;